sensor_id;sensor_type;location;lat;lon;timestamp;temperature;humidity
74153;DHT22;62505;46.070;14.492;2023-04-25T00:01:40;21.70;69.60
74153;DHT22;62505;46.070;14.492;2023-04-25T00:04:07;21.70;69.60
74153;DHT22;62505;46.070;14.492;2023-04-25T00:06:35;21.70;69.60
74153;DHT22;62505;46.070;14.492;2023-04-25T00:09:02;21.70;69.60
74153;DHT22;62505;46.070;14.492;2023-04-25T00:11:34;21.70;69.60
74153;DHT22;62505;46.070;14.492;2023-04-25T00:14:01;21.70;69.60
74153;DHT22;62505;46.070;14.492;2023-04-25T00:16:28;21.70;69.60
74153;DHT22;62505;46.070;14.492;2023-04-25T00:18:58;21.70;69.60
74153;DHT22;62505;46.070;14.492;2023-04-25T00:21:27;21.70;69.70
74153;DHT22;62505;46.070;14.492;2023-04-25T00:23:54;21.70;69.60
74153;DHT22;62505;46.070;14.492;2023-04-25T00:26:21;21.70;69.60
74153;DHT22;62505;46.070;14.492;2023-04-25T00:28:49;21.70;69.60
74153;DHT22;62505;46.070;14.492;2023-04-25T00:31:16;21.70;69.60
74153;DHT22;62505;46.070;14.492;2023-04-25T00:33:43;21.70;69.60
74153;DHT22;62505;46.070;14.492;2023-04-25T00:36:10;21.70;69.60
74153;DHT22;62505;46.070;14.492;2023-04-25T00:38:37;21.70;69.50
74153;DHT22;62505;46.070;14.492;2023-04-25T00:41:05;21.70;69.50
74153;DHT22;62505;46.070;14.492;2023-04-25T00:43:32;21.70;69.50
74153;DHT22;62505;46.070;14.492;2023-04-25T00:46:01;21.70;69.50
74153;DHT22;62505;46.070;14.492;2023-04-25T00:48:28;21.70;69.50
74153;DHT22;62505;46.070;14.492;2023-04-25T00:50:57;21.70;69.50
74153;DHT22;62505;46.070;14.492;2023-04-25T00:53:26;21.70;69.50
74153;DHT22;62505;46.070;14.492;2023-04-25T00:55:54;21.70;69.50
74153;DHT22;62505;46.070;14.492;2023-04-25T00:58:22;21.70;69.50
74153;DHT22;62505;46.070;14.492;2023-04-25T01:00:51;21.70;69.50
74153;DHT22;62505;46.070;14.492;2023-04-25T01:03:20;21.70;69.50
74153;DHT22;62505;46.070;14.492;2023-04-25T01:05:47;21.70;69.50
74153;DHT22;62505;46.070;14.492;2023-04-25T01:08:14;21.70;69.50
74153;DHT22;62505;46.070;14.492;2023-04-25T01:10:41;21.70;69.50
74153;DHT22;62505;46.070;14.492;2023-04-25T01:13:09;21.70;69.50
74153;DHT22;62505;46.070;14.492;2023-04-25T01:15:36;21.70;69.50
74153;DHT22;62505;46.070;14.492;2023-04-25T01:18:03;21.70;69.50
74153;DHT22;62505;46.070;14.492;2023-04-25T01:20:33;21.70;69.50
74153;DHT22;62505;46.070;14.492;2023-04-25T01:23:01;21.70;69.50
74153;DHT22;62505;46.070;14.492;2023-04-25T01:25:29;21.70;69.50
74153;DHT22;62505;46.070;14.492;2023-04-25T01:27:57;21.70;69.50
74153;DHT22;62505;46.070;14.492;2023-04-25T01:30:26;21.60;69.40
74153;DHT22;62505;46.070;14.492;2023-04-25T01:32:54;21.70;69.50
74153;DHT22;62505;46.070;14.492;2023-04-25T01:35:22;21.70;69.40
74153;DHT22;62505;46.070;14.492;2023-04-25T01:37:51;21.70;69.50
74153;DHT22;62505;46.070;14.492;2023-04-25T01:40:21;21.60;69.40
74153;DHT22;62505;46.070;14.492;2023-04-25T01:42:48;21.70;69.40
74153;DHT22;62505;46.070;14.492;2023-04-25T01:45:15;21.70;69.40
74153;DHT22;62505;46.070;14.492;2023-04-25T01:47:43;21.70;69.40
74153;DHT22;62505;46.070;14.492;2023-04-25T01:50:15;21.60;69.30
74153;DHT22;62505;46.070;14.492;2023-04-25T01:52:43;21.60;69.40
74153;DHT22;62505;46.070;14.492;2023-04-25T01:55:10;21.70;69.40
74153;DHT22;62505;46.070;14.492;2023-04-25T01:57:39;21.60;69.30
74153;DHT22;62505;46.070;14.492;2023-04-25T02:00:07;21.60;69.30
74153;DHT22;62505;46.070;14.492;2023-04-25T02:02:35;21.70;69.40
74153;DHT22;62505;46.070;14.492;2023-04-25T02:05:03;21.60;69.30
74153;DHT22;62505;46.070;14.492;2023-04-25T02:07:30;21.70;69.40
74153;DHT22;62505;46.070;14.492;2023-04-25T02:09:57;21.60;69.20
74153;DHT22;62505;46.070;14.492;2023-04-25T02:12:24;21.70;69.30
74153;DHT22;62505;46.070;14.492;2023-04-25T02:14:53;21.60;69.30
74153;DHT22;62505;46.070;14.492;2023-04-25T02:17:20;21.70;69.30
74153;DHT22;62505;46.070;14.492;2023-04-25T02:19:48;21.70;69.30
74153;DHT22;62505;46.070;14.492;2023-04-25T02:22:15;21.70;69.40
74153;DHT22;62505;46.070;14.492;2023-04-25T02:24:42;21.70;69.30
74153;DHT22;62505;46.070;14.492;2023-04-25T02:27:09;21.60;69.30
74153;DHT22;62505;46.070;14.492;2023-04-25T02:29:36;21.70;69.30
74153;DHT22;62505;46.070;14.492;2023-04-25T02:32:05;21.70;69.40
74153;DHT22;62505;46.070;14.492;2023-04-25T02:34:32;21.70;69.40
74153;DHT22;62505;46.070;14.492;2023-04-25T02:36:59;21.60;69.30
74153;DHT22;62505;46.070;14.492;2023-04-25T02:39:26;21.60;69.20
74153;DHT22;62505;46.070;14.492;2023-04-25T02:41:53;21.70;69.30
74153;DHT22;62505;46.070;14.492;2023-04-25T02:44:20;21.60;69.20
74153;DHT22;62505;46.070;14.492;2023-04-25T02:46:47;21.70;69.30
74153;DHT22;62505;46.070;14.492;2023-04-25T02:49:15;21.60;69.20
74153;DHT22;62505;46.070;14.492;2023-04-25T02:51:42;21.70;69.30
74153;DHT22;62505;46.070;14.492;2023-04-25T02:54:09;21.70;69.20
74153;DHT22;62505;46.070;14.492;2023-04-25T02:56:36;21.60;69.20
74153;DHT22;62505;46.070;14.492;2023-04-25T02:59:03;21.70;69.30
74153;DHT22;62505;46.070;14.492;2023-04-25T03:01:30;21.70;69.30
74153;DHT22;62505;46.070;14.492;2023-04-25T03:03:57;21.60;69.20
74153;DHT22;62505;46.070;14.492;2023-04-25T03:06:25;21.60;69.20
74153;DHT22;62505;46.070;14.492;2023-04-25T03:08:52;21.70;69.20
74153;DHT22;62505;46.070;14.492;2023-04-25T03:11:19;21.70;69.30
74153;DHT22;62505;46.070;14.492;2023-04-25T03:13:46;21.60;69.20
74153;DHT22;62505;46.070;14.492;2023-04-25T03:16:13;21.60;69.20
74153;DHT22;62505;46.070;14.492;2023-04-25T03:18:41;21.60;69.20
74153;DHT22;62505;46.070;14.492;2023-04-25T03:21:08;21.60;69.20
74153;DHT22;62505;46.070;14.492;2023-04-25T03:23:36;21.70;69.20
74153;DHT22;62505;46.070;14.492;2023-04-25T03:26:03;21.60;69.20
74153;DHT22;62505;46.070;14.492;2023-04-25T03:28:30;21.70;69.20
74153;DHT22;62505;46.070;14.492;2023-04-25T03:30:57;21.70;69.20
74153;DHT22;62505;46.070;14.492;2023-04-25T03:33:24;21.60;69.20
74153;DHT22;62505;46.070;14.492;2023-04-25T03:35:51;21.60;69.10
74153;DHT22;62505;46.070;14.492;2023-04-25T03:38:18;21.60;69.10
74153;DHT22;62505;46.070;14.492;2023-04-25T03:40:47;21.60;69.10
74153;DHT22;62505;46.070;14.492;2023-04-25T03:43:14;21.60;69.10
74153;DHT22;62505;46.070;14.492;2023-04-25T03:45:40;21.60;69.10
74153;DHT22;62505;46.070;14.492;2023-04-25T03:48:07;21.70;69.20
74153;DHT22;62505;46.070;14.492;2023-04-25T03:50:35;21.60;69.10
74153;DHT22;62505;46.070;14.492;2023-04-25T03:53:02;21.60;69.10
74153;DHT22;62505;46.070;14.492;2023-04-25T03:55:29;21.60;69.10
74153;DHT22;62505;46.070;14.492;2023-04-25T03:57:58;21.60;69.10
74153;DHT22;62505;46.070;14.492;2023-04-25T04:00:25;21.60;69.00
74153;DHT22;62505;46.070;14.492;2023-04-25T04:02:52;21.60;69.00
74153;DHT22;62505;46.070;14.492;2023-04-25T04:05:19;21.60;69.10
74153;DHT22;62505;46.070;14.492;2023-04-25T04:07:46;21.60;69.10
74153;DHT22;62505;46.070;14.492;2023-04-25T04:10:13;21.60;69.10
74153;DHT22;62505;46.070;14.492;2023-04-25T04:12:40;21.60;69.20
74153;DHT22;62505;46.070;14.492;2023-04-25T04:15:09;21.50;69.10
74153;DHT22;62505;46.070;14.492;2023-04-25T04:17:37;21.60;69.20
74153;DHT22;62505;46.070;14.492;2023-04-25T04:20:05;21.60;69.30
74153;DHT22;62505;46.070;14.492;2023-04-25T04:22:33;21.60;69.20
74153;DHT22;62505;46.070;14.492;2023-04-25T04:25:01;21.60;69.20
74153;DHT22;62505;46.070;14.492;2023-04-25T04:27:28;21.60;69.20
74153;DHT22;62505;46.070;14.492;2023-04-25T04:29:55;21.60;69.20
74153;DHT22;62505;46.070;14.492;2023-04-25T04:32:24;21.60;69.20
74153;DHT22;62505;46.070;14.492;2023-04-25T04:34:53;21.60;69.20
74153;DHT22;62505;46.070;14.492;2023-04-25T04:37:20;21.60;69.20
74153;DHT22;62505;46.070;14.492;2023-04-25T04:39:47;21.60;69.20
74153;DHT22;62505;46.070;14.492;2023-04-25T04:42:14;21.70;69.70
74153;DHT22;62505;46.070;14.492;2023-04-25T04:44:41;21.70;69.40
74153;DHT22;62505;46.070;14.492;2023-04-25T04:47:10;21.70;69.20
74153;DHT22;62505;46.070;14.492;2023-04-25T04:49:39;21.70;69.40
74153;DHT22;62505;46.070;14.492;2023-04-25T04:52:06;21.70;69.40
74153;DHT22;62505;46.070;14.492;2023-04-25T04:54:33;21.70;70.30
74153;DHT22;62505;46.070;14.492;2023-04-25T04:57:01;21.70;69.10
74153;DHT22;62505;46.070;14.492;2023-04-25T04:59:28;21.60;68.70
74153;DHT22;62505;46.070;14.492;2023-04-25T05:01:55;21.60;68.40
74153;DHT22;62505;46.070;14.492;2023-04-25T05:04:22;21.60;68.80
74153;DHT22;62505;46.070;14.492;2023-04-25T05:06:51;21.60;67.60
74153;DHT22;62505;46.070;14.492;2023-04-25T05:09:18;21.60;69.10
74153;DHT22;62505;46.070;14.492;2023-04-25T05:11:45;21.60;68.40
74153;DHT22;62505;46.070;14.492;2023-04-25T05:14:12;21.60;68.40
74153;DHT22;62505;46.070;14.492;2023-04-25T05:16:39;21.60;68.40
74153;DHT22;62505;46.070;14.492;2023-04-25T05:19:06;21.60;68.40
74153;DHT22;62505;46.070;14.492;2023-04-25T05:21:33;21.60;68.50
74153;DHT22;62505;46.070;14.492;2023-04-25T05:24:02;21.60;68.40
74153;DHT22;62505;46.070;14.492;2023-04-25T05:26:29;21.60;68.50
74153;DHT22;62505;46.070;14.492;2023-04-25T05:28:57;21.60;68.40
74153;DHT22;62505;46.070;14.492;2023-04-25T05:31:24;21.60;68.50
74153;DHT22;62505;46.070;14.492;2023-04-25T05:33:51;21.50;68.40
74153;DHT22;62505;46.070;14.492;2023-04-25T05:36:18;21.60;68.50
74153;DHT22;62505;46.070;14.492;2023-04-25T05:38:45;21.60;68.50
74153;DHT22;62505;46.070;14.492;2023-04-25T05:41:14;21.60;68.50
74153;DHT22;62505;46.070;14.492;2023-04-25T05:43:41;21.60;68.50
74153;DHT22;62505;46.070;14.492;2023-04-25T05:46:10;21.60;69.30
74153;DHT22;62505;46.070;14.492;2023-04-25T05:48:37;21.50;68.50
74153;DHT22;62505;46.070;14.492;2023-04-25T05:51:04;21.60;68.90
74153;DHT22;62505;46.070;14.492;2023-04-25T05:53:31;21.60;68.80
74153;DHT22;62505;46.070;14.492;2023-04-25T05:55:58;21.60;68.60
74153;DHT22;62505;46.070;14.492;2023-04-25T05:58:27;21.80;68.40
74153;DHT22;62505;46.070;14.492;2023-04-25T06:00:54;21.90;67.80
74153;DHT22;62505;46.070;14.492;2023-04-25T06:03:21;22.00;67.30
74153;DHT22;62505;46.070;14.492;2023-04-25T06:05:48;22.10;67.10
74153;DHT22;62505;46.070;14.492;2023-04-25T06:08:15;22.10;66.90
74153;DHT22;62505;46.070;14.492;2023-04-25T06:10:42;22.20;67.00
74153;DHT22;62505;46.070;14.492;2023-04-25T06:13:09;22.20;67.00
74153;DHT22;62505;46.070;14.492;2023-04-25T06:15:37;22.20;67.00
74153;DHT22;62505;46.070;14.492;2023-04-25T06:18:04;22.20;67.00
74153;DHT22;62505;46.070;14.492;2023-04-25T06:20:31;22.20;67.20
74153;DHT22;62505;46.070;14.492;2023-04-25T06:22:58;22.30;67.30
74153;DHT22;62505;46.070;14.492;2023-04-25T06:25:25;22.30;67.30
74153;DHT22;62505;46.070;14.492;2023-04-25T06:27:52;22.40;67.40
74153;DHT22;62505;46.070;14.492;2023-04-25T06:30:19;22.40;67.40
74153;DHT22;62505;46.070;14.492;2023-04-25T06:32:50;22.40;67.40
74153;DHT22;62505;46.070;14.492;2023-04-25T06:35:17;22.40;67.40
74153;DHT22;62505;46.070;14.492;2023-04-25T06:37:44;22.40;67.40
74153;DHT22;62505;46.070;14.492;2023-04-25T06:40:11;22.40;67.40
74153;DHT22;62505;46.070;14.492;2023-04-25T06:42:38;22.50;67.40
74153;DHT22;62505;46.070;14.492;2023-04-25T06:45:06;22.50;67.40
74153;DHT22;62505;46.070;14.492;2023-04-25T06:47:33;22.50;67.50
74153;DHT22;62505;46.070;14.492;2023-04-25T06:50:01;22.50;67.50
74153;DHT22;62505;46.070;14.492;2023-04-25T06:52:28;22.50;68.30
74153;DHT22;62505;46.070;14.492;2023-04-25T06:54:55;22.50;67.60
74153;DHT22;62505;46.070;14.492;2023-04-25T06:57:22;22.50;67.60
74153;DHT22;62505;46.070;14.492;2023-04-25T06:59:49;22.50;67.80
74153;DHT22;62505;46.070;14.492;2023-04-25T07:02:16;22.50;67.90
74153;DHT22;62505;46.070;14.492;2023-04-25T07:04:43;22.40;68.00
74153;DHT22;62505;46.070;14.492;2023-04-25T07:07:13;22.40;68.20
74153;DHT22;62505;46.070;14.492;2023-04-25T07:09:40;22.40;68.40
74153;DHT22;62505;46.070;14.492;2023-04-25T07:12:07;22.40;68.60
74153;DHT22;62505;46.070;14.492;2023-04-25T07:14:33;22.40;68.70
74153;DHT22;62505;46.070;14.492;2023-04-25T07:17:00;22.30;69.00
74153;DHT22;62505;46.070;14.492;2023-04-25T07:19:27;22.30;69.00
74153;DHT22;62505;46.070;14.492;2023-04-25T07:21:55;22.30;69.30
74153;DHT22;62505;46.070;14.492;2023-04-25T07:24:23;22.30;69.30
74153;DHT22;62505;46.070;14.492;2023-04-25T07:26:51;22.40;69.20
74153;DHT22;62505;46.070;14.492;2023-04-25T07:29:18;22.40;69.10
74153;DHT22;62505;46.070;14.492;2023-04-25T07:31:45;22.50;68.90
74153;DHT22;62505;46.070;14.492;2023-04-25T07:34:11;22.50;68.60
74153;DHT22;62505;46.070;14.492;2023-04-25T07:36:38;22.60;68.50
74153;DHT22;62505;46.070;14.492;2023-04-25T07:39:05;22.60;68.40
74153;DHT22;62505;46.070;14.492;2023-04-25T07:41:36;22.60;68.50
74153;DHT22;62505;46.070;14.492;2023-04-25T07:44:03;22.60;68.50
74153;DHT22;62505;46.070;14.492;2023-04-25T07:46:30;22.60;68.50
74153;DHT22;62505;46.070;14.492;2023-04-25T07:48:57;22.60;68.70
74153;DHT22;62505;46.070;14.492;2023-04-25T07:51:24;22.60;68.90
74153;DHT22;62505;46.070;14.492;2023-04-25T07:53:51;22.50;69.00
74153;DHT22;62505;46.070;14.492;2023-04-25T07:56:18;22.50;69.20
74153;DHT22;62505;46.070;14.492;2023-04-25T07:58:46;22.50;69.30
74153;DHT22;62505;46.070;14.492;2023-04-25T08:01:13;22.50;69.50
74153;DHT22;62505;46.070;14.492;2023-04-25T08:03:40;22.50;69.60
74153;DHT22;62505;46.070;14.492;2023-04-25T08:06:07;22.50;69.70
74153;DHT22;62505;46.070;14.492;2023-04-25T08:08:34;22.50;70.20
74153;DHT22;62505;46.070;14.492;2023-04-25T08:11:01;22.40;70.30
74153;DHT22;62505;46.070;14.492;2023-04-25T08:13:29;22.40;70.30
74153;DHT22;62505;46.070;14.492;2023-04-25T08:15:57;22.40;70.10
74153;DHT22;62505;46.070;14.492;2023-04-25T08:18:24;22.40;70.60
74153;DHT22;62505;46.070;14.492;2023-04-25T08:20:51;22.40;70.60
74153;DHT22;62505;46.070;14.492;2023-04-25T08:23:18;22.40;70.30
74153;DHT22;62505;46.070;14.492;2023-04-25T08:25:45;22.30;70.10
74153;DHT22;62505;46.070;14.492;2023-04-25T08:28:12;22.30;70.00
74153;DHT22;62505;46.070;14.492;2023-04-25T08:30:39;22.30;69.80
74153;DHT22;62505;46.070;14.492;2023-04-25T08:33:07;22.30;69.80
74153;DHT22;62505;46.070;14.492;2023-04-25T08:35:34;22.30;69.50
74153;DHT22;62505;46.070;14.492;2023-04-25T08:38:01;22.30;69.70
74153;DHT22;62505;46.070;14.492;2023-04-25T08:40:28;22.30;70.10
74153;DHT22;62505;46.070;14.492;2023-04-25T08:42:57;22.30;70.30
74153;DHT22;62505;46.070;14.492;2023-04-25T08:45:26;22.30;70.30
74153;DHT22;62505;46.070;14.492;2023-04-25T08:47:54;22.30;70.40
74153;DHT22;62505;46.070;14.492;2023-04-25T08:50:24;22.30;70.50
74153;DHT22;62505;46.070;14.492;2023-04-25T08:52:53;22.30;70.50
74153;DHT22;62505;46.070;14.492;2023-04-25T08:55:21;22.30;70.50
74153;DHT22;62505;46.070;14.492;2023-04-25T08:57:49;22.30;70.50
74153;DHT22;62505;46.070;14.492;2023-04-25T09:00:18;22.30;70.60
74153;DHT22;62505;46.070;14.492;2023-04-25T09:02:47;22.30;70.50
74153;DHT22;62505;46.070;14.492;2023-04-25T09:05:14;22.30;70.50
74153;DHT22;62505;46.070;14.492;2023-04-25T09:07:42;22.30;70.60
74153;DHT22;62505;46.070;14.492;2023-04-25T09:10:09;22.30;70.80
74153;DHT22;62505;46.070;14.492;2023-04-25T09:12:36;22.30;70.70
74153;DHT22;62505;46.070;14.492;2023-04-25T09:15:05;22.30;70.80
74153;DHT22;62505;46.070;14.492;2023-04-25T09:17:33;22.30;70.50
74153;DHT22;62505;46.070;14.492;2023-04-25T09:20:07;22.30;70.60
74153;DHT22;62505;46.070;14.492;2023-04-25T09:22:35;22.30;70.70
74153;DHT22;62505;46.070;14.492;2023-04-25T09:25:08;22.30;70.70
74153;DHT22;62505;46.070;14.492;2023-04-25T09:27:35;22.30;70.70
74153;DHT22;62505;46.070;14.492;2023-04-25T09:30:03;22.30;71.00
74153;DHT22;62505;46.070;14.492;2023-04-25T09:32:30;22.30;70.90
74153;DHT22;62505;46.070;14.492;2023-04-25T09:34:57;22.30;71.00
74153;DHT22;62505;46.070;14.492;2023-04-25T09:37:26;22.40;71.00
74153;DHT22;62505;46.070;14.492;2023-04-25T09:39:56;22.30;70.90
74153;DHT22;62505;46.070;14.492;2023-04-25T09:42:27;22.30;70.70
74153;DHT22;62505;46.070;14.492;2023-04-25T09:44:55;22.30;70.20
74153;DHT22;62505;46.070;14.492;2023-04-25T09:47:23;22.30;70.40
74153;DHT22;62505;46.070;14.492;2023-04-25T09:49:51;22.30;70.40
74153;DHT22;62505;46.070;14.492;2023-04-25T09:52:19;22.20;70.30
74153;DHT22;62505;46.070;14.492;2023-04-25T09:54:48;22.20;70.10
74153;DHT22;62505;46.070;14.492;2023-04-25T09:57:17;22.30;70.10
74153;DHT22;62505;46.070;14.492;2023-04-25T09:59:46;22.30;70.10
74153;DHT22;62505;46.070;14.492;2023-04-25T10:02:15;22.20;70.00
74153;DHT22;62505;46.070;14.492;2023-04-25T10:04:45;22.20;70.00
74153;DHT22;62505;46.070;14.492;2023-04-25T10:07:14;22.30;70.00
74153;DHT22;62505;46.070;14.492;2023-04-25T10:09:41;22.20;69.90
74153;DHT22;62505;46.070;14.492;2023-04-25T10:12:11;22.20;69.90
74153;DHT22;62505;46.070;14.492;2023-04-25T10:14:38;22.20;69.90
74153;DHT22;62505;46.070;14.492;2023-04-25T10:17:11;22.20;69.90
74153;DHT22;62505;46.070;14.492;2023-04-25T10:19:38;22.20;69.90
74153;DHT22;62505;46.070;14.492;2023-04-25T10:22:08;22.20;69.90
74153;DHT22;62505;46.070;14.492;2023-04-25T10:24:39;22.20;69.80
74153;DHT22;62505;46.070;14.492;2023-04-25T10:27:06;22.20;69.80
74153;DHT22;62505;46.070;14.492;2023-04-25T10:29:35;22.20;69.80
74153;DHT22;62505;46.070;14.492;2023-04-25T10:32:02;22.20;69.70
74153;DHT22;62505;46.070;14.492;2023-04-25T10:34:42;22.20;69.70
74153;DHT22;62505;46.070;14.492;2023-04-25T10:37:12;22.20;69.60
74153;DHT22;62505;46.070;14.492;2023-04-25T10:39:40;22.20;69.60
74153;DHT22;62505;46.070;14.492;2023-04-25T10:42:08;22.20;69.60
74153;DHT22;62505;46.070;14.492;2023-04-25T10:44:37;22.20;69.60
74153;DHT22;62505;46.070;14.492;2023-04-25T10:47:07;22.20;70.40
74153;DHT22;62505;46.070;14.492;2023-04-25T10:49:35;22.20;69.50
74153;DHT22;62505;46.070;14.492;2023-04-25T10:52:18;22.20;69.60
74153;DHT22;62505;46.070;14.492;2023-04-25T10:54:51;22.20;69.50
74153;DHT22;62505;46.070;14.492;2023-04-25T10:57:32;22.20;69.50
74153;DHT22;62505;46.070;14.492;2023-04-25T11:00:08;22.20;69.50
74153;DHT22;62505;46.070;14.492;2023-04-25T11:02:44;22.20;69.50
74153;DHT22;62505;46.070;14.492;2023-04-25T11:05:23;22.20;69.40
74153;DHT22;62505;46.070;14.492;2023-04-25T11:07:54;22.20;69.50
74153;DHT22;62505;46.070;14.492;2023-04-25T11:10:25;22.20;69.60
74153;DHT22;62505;46.070;14.492;2023-04-25T11:12:53;22.20;69.80
74153;DHT22;62505;46.070;14.492;2023-04-25T11:15:20;22.20;69.80
74153;DHT22;62505;46.070;14.492;2023-04-25T11:17:47;22.30;69.80
74153;DHT22;62505;46.070;14.492;2023-04-25T11:20:14;22.30;69.80
74153;DHT22;62505;46.070;14.492;2023-04-25T11:22:41;22.30;70.10
74153;DHT22;62505;46.070;14.492;2023-04-25T11:25:13;22.30;70.00
74153;DHT22;62505;46.070;14.492;2023-04-25T11:27:50;22.40;70.60
74153;DHT22;62505;46.070;14.492;2023-04-25T11:30:17;22.40;70.50
74153;DHT22;62505;46.070;14.492;2023-04-25T11:32:45;22.40;70.30
74153;DHT22;62505;46.070;14.492;2023-04-25T11:35:12;22.40;70.80
74153;DHT22;62505;46.070;14.492;2023-04-25T11:37:41;22.40;71.30
74153;DHT22;62505;46.070;14.492;2023-04-25T11:40:09;22.40;72.20
74153;DHT22;62505;46.070;14.492;2023-04-25T11:42:39;22.40;71.80
74153;DHT22;62505;46.070;14.492;2023-04-25T11:45:10;22.40;72.10
74153;DHT22;62505;46.070;14.492;2023-04-25T11:47:37;22.40;72.40
74153;DHT22;62505;46.070;14.492;2023-04-25T11:50:06;22.50;72.70
74153;DHT22;62505;46.070;14.492;2023-04-25T11:52:38;22.50;72.50
74153;DHT22;62505;46.070;14.492;2023-04-25T11:55:07;22.50;72.40
74153;DHT22;62505;46.070;14.492;2023-04-25T11:57:34;22.50;72.90
74153;DHT22;62505;46.070;14.492;2023-04-25T12:00:11;22.50;72.90
74153;DHT22;62505;46.070;14.492;2023-04-25T12:02:42;22.50;72.80
74153;DHT22;62505;46.070;14.492;2023-04-25T12:05:11;22.50;72.60
74153;DHT22;62505;46.070;14.492;2023-04-25T12:07:38;22.50;73.00
74153;DHT22;62505;46.070;14.492;2023-04-25T12:10:07;22.50;73.40
74153;DHT22;62505;46.070;14.492;2023-04-25T12:12:36;22.50;73.30
74153;DHT22;62505;46.070;14.492;2023-04-25T12:15:12;22.50;73.50
74153;DHT22;62505;46.070;14.492;2023-04-25T12:17:41;22.50;74.20
74153;DHT22;62505;46.070;14.492;2023-04-25T12:20:10;22.50;73.80
74153;DHT22;62505;46.070;14.492;2023-04-25T12:22:37;22.50;74.60
74153;DHT22;62505;46.070;14.492;2023-04-25T12:25:05;22.50;74.60
74153;DHT22;62505;46.070;14.492;2023-04-25T12:27:33;22.50;73.90
74153;DHT22;62505;46.070;14.492;2023-04-25T12:30:01;22.50;74.20
74153;DHT22;62505;46.070;14.492;2023-04-25T12:32:30;22.50;74.20
74153;DHT22;62505;46.070;14.492;2023-04-25T12:34:57;22.50;74.10
74153;DHT22;62505;46.070;14.492;2023-04-25T12:37:24;22.50;74.10
74153;DHT22;62505;46.070;14.492;2023-04-25T12:39:51;22.50;74.20
74153;DHT22;62505;46.070;14.492;2023-04-25T12:42:18;22.60;74.30
74153;DHT22;62505;46.070;14.492;2023-04-25T12:44:45;22.50;74.30
74153;DHT22;62505;46.070;14.492;2023-04-25T12:47:13;22.50;74.30
74153;DHT22;62505;46.070;14.492;2023-04-25T12:49:41;22.50;74.20
74153;DHT22;62505;46.070;14.492;2023-04-25T12:52:08;22.50;74.50
74153;DHT22;62505;46.070;14.492;2023-04-25T12:54:36;22.50;74.50
74153;DHT22;62505;46.070;14.492;2023-04-25T12:57:04;22.60;73.80
74153;DHT22;62505;46.070;14.492;2023-04-25T12:59:31;22.50;73.20
74153;DHT22;62505;46.070;14.492;2023-04-25T13:01:58;22.50;73.00
74153;DHT22;62505;46.070;14.492;2023-04-25T13:04:25;22.50;73.00
74153;DHT22;62505;46.070;14.492;2023-04-25T13:06:54;22.50;72.60
74153;DHT22;62505;46.070;14.492;2023-04-25T13:09:21;22.40;72.60
74153;DHT22;62505;46.070;14.492;2023-04-25T13:11:48;22.40;72.50
74153;DHT22;62505;46.070;14.492;2023-04-25T13:14:15;22.40;72.80
74153;DHT22;62505;46.070;14.492;2023-04-25T13:16:42;22.40;72.60
74153;DHT22;62505;46.070;14.492;2023-04-25T13:19:09;22.40;72.50
74153;DHT22;62505;46.070;14.492;2023-04-25T13:21:37;22.40;72.40
74153;DHT22;62505;46.070;14.492;2023-04-25T13:24:06;22.40;72.30
74153;DHT22;62505;46.070;14.492;2023-04-25T13:26:33;22.40;72.30
74153;DHT22;62505;46.070;14.492;2023-04-25T13:29:00;22.40;72.20
74153;DHT22;62505;46.070;14.492;2023-04-25T13:31:29;22.40;72.20
74153;DHT22;62505;46.070;14.492;2023-04-25T13:33:56;22.40;72.10
74153;DHT22;62505;46.070;14.492;2023-04-25T13:36:23;22.40;72.10
74153;DHT22;62505;46.070;14.492;2023-04-25T13:38:51;22.40;72.10
74153;DHT22;62505;46.070;14.492;2023-04-25T13:41:19;22.40;72.00
74153;DHT22;62505;46.070;14.492;2023-04-25T13:43:46;22.40;72.00
74153;DHT22;62505;46.070;14.492;2023-04-25T13:46:14;22.40;72.70
74153;DHT22;62505;46.070;14.492;2023-04-25T13:48:42;22.40;71.90
74153;DHT22;62505;46.070;14.492;2023-04-25T13:51:14;22.40;71.80
74153;DHT22;62505;46.070;14.492;2023-04-25T13:53:41;22.40;72.00
74153;DHT22;62505;46.070;14.492;2023-04-25T13:56:09;22.40;71.90
74153;DHT22;62505;46.070;14.492;2023-04-25T13:58:38;22.40;71.80
74153;DHT22;62505;46.070;14.492;2023-04-25T14:01:05;22.40;71.70
74153;DHT22;62505;46.070;14.492;2023-04-25T14:03:32;22.40;71.70
74153;DHT22;62505;46.070;14.492;2023-04-25T14:05:59;22.40;71.40
74153;DHT22;62505;46.070;14.492;2023-04-25T14:08:26;22.30;71.20
74153;DHT22;62505;46.070;14.492;2023-04-25T14:10:54;22.30;71.40
74153;DHT22;62505;46.070;14.492;2023-04-25T14:13:21;22.30;71.20
74153;DHT22;62505;46.070;14.492;2023-04-25T14:15:50;22.30;71.30
74153;DHT22;62505;46.070;14.492;2023-04-25T14:18:17;22.30;71.20
74153;DHT22;62505;46.070;14.492;2023-04-25T14:20:44;22.30;71.20
74153;DHT22;62505;46.070;14.492;2023-04-25T14:23:12;22.30;71.20
74153;DHT22;62505;46.070;14.492;2023-04-25T14:25:39;22.30;71.30
74153;DHT22;62505;46.070;14.492;2023-04-25T14:28:07;22.40;71.40
74153;DHT22;62505;46.070;14.492;2023-04-25T14:30:34;22.40;71.30
74153;DHT22;62505;46.070;14.492;2023-04-25T14:33:02;22.40;72.40
74153;DHT22;62505;46.070;14.492;2023-04-25T14:35:30;22.40;71.70
74153;DHT22;62505;46.070;14.492;2023-04-25T14:37:57;22.40;71.70
74153;DHT22;62505;46.070;14.492;2023-04-25T14:40:24;22.40;71.50
74153;DHT22;62505;46.070;14.492;2023-04-25T14:42:50;22.40;71.00
74153;DHT22;62505;46.070;14.492;2023-04-25T14:45:18;22.40;71.20
74153;DHT22;62505;46.070;14.492;2023-04-25T14:47:45;22.40;71.30
74153;DHT22;62505;46.070;14.492;2023-04-25T14:50:13;22.40;71.20
74153;DHT22;62505;46.070;14.492;2023-04-25T14:52:40;22.40;71.20
74153;DHT22;62505;46.070;14.492;2023-04-25T14:55:08;22.40;71.20
74153;DHT22;62505;46.070;14.492;2023-04-25T14:57:37;22.40;71.20
74153;DHT22;62505;46.070;14.492;2023-04-25T15:00:05;22.40;71.10
74153;DHT22;62505;46.070;14.492;2023-04-25T15:02:37;22.40;71.10
74153;DHT22;62505;46.070;14.492;2023-04-25T15:05:05;22.40;71.10
74153;DHT22;62505;46.070;14.492;2023-04-25T15:07:33;22.30;71.00
74153;DHT22;62505;46.070;14.492;2023-04-25T15:10:00;22.30;71.00
74153;DHT22;62505;46.070;14.492;2023-04-25T15:12:28;22.30;71.00
74153;DHT22;62505;46.070;14.492;2023-04-25T15:14:55;22.30;71.00
74153;DHT22;62505;46.070;14.492;2023-04-25T15:17:22;22.40;71.00
74153;DHT22;62505;46.070;14.492;2023-04-25T15:19:49;22.30;71.00